sensor_id;sensor_type;location;lat;lon;timestamp;pressure;altitude;pressure_sealevel;temperature;humidity
30724;BME280;17473;52.286;20.930;2023-07-28T00:01:07;99424.22;;;18.50;57.61
30724;BME280;17473;52.286;20.930;2023-07-28T00:03:34;99424.31;;;18.42;57.79
30724;BME280;17473;52.286;20.930;2023-07-28T00:06:01;99423.53;;;18.37;58.09
30724;BME280;17473;52.286;20.930;2023-07-28T00:08:28;99427.88;;;18.44;57.71
30724;BME280;17473;52.286;20.930;2023-07-28T00:10:56;99430.56;;;18.41;58.26
30724;BME280;17473;52.286;20.930;2023-07-28T00:13:23;99432.25;;;18.48;57.45
30724;BME280;17473;52.286;20.930;2023-07-28T00:15:50;99424.34;;;18.39;57.97
30724;BME280;17473;52.286;20.930;2023-07-28T00:18:17;99425.06;;;18.53;57.62
30724;BME280;17473;52.286;20.930;2023-07-28T00:20:45;99426.97;;;18.43;57.82
30724;BME280;17473;52.286;20.930;2023-07-28T00:23:12;99411.84;;;18.42;58.23
30724;BME280;17473;52.286;20.930;2023-07-28T00:25:39;99417.06;;;18.53;57.65
30724;BME280;17473;52.286;20.930;2023-07-28T00:28:06;99423.06;;;18.68;57.00
30724;BME280;17473;52.286;20.930;2023-07-28T00:30:33;99416.09;;;18.59;56.92
30724;BME280;17473;52.286;20.930;2023-07-28T00:33:01;99411.75;;;18.50;57.21
30724;BME280;17473;52.286;20.930;2023-07-28T00:35:28;99413.44;;;18.56;57.56
30724;BME280;17473;52.286;20.930;2023-07-28T00:37:55;99414.38;;;18.52;57.77
30724;BME280;17473;52.286;20.930;2023-07-28T00:40:23;99401.81;;;18.58;57.22
30724;BME280;17473;52.286;20.930;2023-07-28T00:42:50;99401.03;;;18.52;57.24
30724;BME280;17473;52.286;20.930;2023-07-28T00:45:17;99405.53;;;18.48;57.28
30724;BME280;17473;52.286;20.930;2023-07-28T00:47:45;99402.03;;;18.44;57.21
30724;BME280;17473;52.286;20.930;2023-07-28T00:50:12;99392.28;;;18.39;57.30
30724;BME280;17473;52.286;20.930;2023-07-28T00:52:40;99398.41;;;18.47;57.34
30724;BME280;17473;52.286;20.930;2023-07-28T00:55:07;99400.25;;;18.45;57.39
30724;BME280;17473;52.286;20.930;2023-07-28T00:57:35;99386.75;;;18.53;57.04
30724;BME280;17473;52.286;20.930;2023-07-28T01:00:02;99390.41;;;18.49;57.06
30724;BME280;17473;52.286;20.930;2023-07-28T01:02:29;99389.69;;;18.36;57.40
30724;BME280;17473;52.286;20.930;2023-07-28T01:04:57;99385.16;;;18.41;57.37
30724;BME280;17473;52.286;20.930;2023-07-28T01:08:07;99377.16;;;18.39;57.75
30724;BME280;17473;52.286;20.930;2023-07-28T01:10:38;99378.84;;;18.46;57.84
30724;BME280;17473;52.286;20.930;2023-07-28T01:13:06;99376.16;;;18.46;57.40
30724;BME280;17473;52.286;20.930;2023-07-28T01:15:33;99368.13;;;18.50;57.82
30724;BME280;17473;52.286;20.930;2023-07-28T01:18:00;99369.94;;;18.46;57.72
30724;BME280;17473;52.286;20.930;2023-07-28T01:20:30;99378.88;;;18.43;58.13
30724;BME280;17473;52.286;20.930;2023-07-28T01:23:24;99361.16;;;18.36;57.96
30724;BME280;17473;52.286;20.930;2023-07-28T01:26:10;99361.16;;;18.36;58.15
30724;BME280;17473;52.286;20.930;2023-07-28T01:28:39;99359.88;;;18.62;56.99
30724;BME280;17473;52.286;20.930;2023-07-28T01:31:08;99361.13;;;18.38;57.70
30724;BME280;17473;52.286;20.930;2023-07-28T01:33:36;99352.03;;;18.51;57.32
30724;BME280;17473;52.286;20.930;2023-07-28T01:36:03;99349.13;;;18.67;57.11
30724;BME280;17473;52.286;20.930;2023-07-28T01:38:31;99346.81;;;18.45;57.29
30724;BME280;17473;52.286;20.930;2023-07-28T01:40:58;99333.66;;;18.29;57.69
30724;BME280;17473;52.286;20.930;2023-07-28T01:43:25;99340.75;;;18.32;57.82
30724;BME280;17473;52.286;20.930;2023-07-28T01:45:52;99340.69;;;18.37;57.68
30724;BME280;17473;52.286;20.930;2023-07-28T01:48:19;99345.09;;;18.38;57.87
30724;BME280;17473;52.286;20.930;2023-07-28T01:50:46;99343.22;;;18.44;57.43
30724;BME280;17473;52.286;20.930;2023-07-28T01:53:13;99348.59;;;18.43;57.37
30724;BME280;17473;52.286;20.930;2023-07-28T01:55:40;99336.16;;;18.42;57.79
30724;BME280;17473;52.286;20.930;2023-07-28T01:58:07;99337.31;;;18.24;58.44
30724;BME280;17473;52.286;20.930;2023-07-28T02:00:35;99338.25;;;18.20;58.48
30724;BME280;17473;52.286;20.930;2023-07-28T02:03:02;99346.06;;;18.34;58.38
30724;BME280;17473;52.286;20.930;2023-07-28T02:05:31;99346.94;;;18.36;58.55
30724;BME280;17473;52.286;20.930;2023-07-28T02:07:58;99350.56;;;18.30;58.55
30724;BME280;17473;52.286;20.930;2023-07-28T02:10:29;99342.53;;;18.32;58.92
30724;BME280;17473;52.286;20.930;2023-07-28T02:12:57;99342.44;;;18.38;59.07
30724;BME280;17473;52.286;20.930;2023-07-28T02:15:24;99341.66;;;18.29;59.35
30724;BME280;17473;52.286;20.930;2023-07-28T02:17:51;99341.63;;;18.33;59.80
30724;BME280;17473;52.286;20.930;2023-07-28T02:20:18;99336.19;;;18.39;59.51
30724;BME280;17473;52.286;20.930;2023-07-28T02:22:45;99332.94;;;18.17;60.38
30724;BME280;17473;52.286;20.930;2023-07-28T02:25:12;99335.34;;;18.35;59.90
30724;BME280;17473;52.286;20.930;2023-07-28T02:27:40;99337.63;;;18.01;61.36
30724;BME280;17473;52.286;20.930;2023-07-28T02:30:07;99340.81;;;18.26;60.90
30724;BME280;17473;52.286;20.930;2023-07-28T02:32:35;99329.50;;;18.10;61.63
30724;BME280;17473;52.286;20.930;2023-07-28T02:35:02;99327.88;;;17.95;62.28
30724;BME280;17473;52.286;20.930;2023-07-28T02:37:30;99326.13;;;17.92;62.31
30724;BME280;17473;52.286;20.930;2023-07-28T02:39:57;99330.59;;;17.90;62.75
30724;BME280;17473;52.286;20.930;2023-07-28T02:42:24;99336.81;;;17.92;62.88
30724;BME280;17473;52.286;20.930;2023-07-28T02:44:52;99337.31;;;18.24;62.06
30724;BME280;17473;52.286;20.930;2023-07-28T02:47:19;99332.47;;;17.80;63.78
30724;BME280;17473;52.286;20.930;2023-07-28T02:49:46;99337.78;;;17.83;64.13
30724;BME280;17473;52.286;20.930;2023-07-28T02:52:13;99339.59;;;17.81;64.68
30724;BME280;17473;52.286;20.930;2023-07-28T02:54:40;99331.63;;;17.77;65.58
30724;BME280;17473;52.286;20.930;2023-07-28T02:57:07;99328.09;;;17.76;65.81
30724;BME280;17473;52.286;20.930;2023-07-28T02:59:35;99323.75;;;17.67;66.64
30724;BME280;17473;52.286;20.930;2023-07-28T03:02:02;99324.59;;;17.71;67.55
30724;BME280;17473;52.286;20.930;2023-07-28T03:04:29;99320.75;;;17.94;66.29
30724;BME280;17473;52.286;20.930;2023-07-28T03:06:56;99314.91;;;17.65;67.40
30724;BME280;17473;52.286;20.930;2023-07-28T03:09:23;99320.34;;;17.55;68.00
30724;BME280;17473;52.286;20.930;2023-07-28T03:11:50;99321.81;;;17.82;67.34
30724;BME280;17473;52.286;20.930;2023-07-28T03:14:17;99326.31;;;17.77;67.89
30724;BME280;17473;52.286;20.930;2023-07-28T03:16:45;99316.75;;;17.57;68.77
30724;BME280;17473;52.286;20.930;2023-07-28T03:19:12;99312.16;;;17.68;68.35
30724;BME280;17473;52.286;20.930;2023-07-28T03:21:39;99309.63;;;17.61;68.94
30724;BME280;17473;52.286;20.930;2023-07-28T03:24:06;99296.31;;;17.55;69.29
30724;BME280;17473;52.286;20.930;2023-07-28T03:26:33;99294.44;;;17.64;69.26
30724;BME280;17473;52.286;20.930;2023-07-28T03:29:01;99292.50;;;17.77;68.66
30724;BME280;17473;52.286;20.930;2023-07-28T03:31:28;99293.44;;;17.73;68.97
30724;BME280;17473;52.286;20.930;2023-07-28T03:33:55;99299.91;;;17.55;69.50
30724;BME280;17473;52.286;20.930;2023-07-28T03:36:23;99299.78;;;17.64;68.75
30724;BME280;17473;52.286;20.930;2023-07-28T03:38:50;99294.41;;;17.66;69.05
30724;BME280;17473;52.286;20.930;2023-07-28T03:41:17;99291.03;;;17.51;70.06
30724;BME280;17473;52.286;20.930;2023-07-28T03:43:44;99288.31;;;17.55;70.23
30724;BME280;17473;52.286;20.930;2023-07-28T03:46:12;99289.06;;;17.69;69.56
30724;BME280;17473;52.286;20.930;2023-07-28T03:48:39;99292.41;;;17.83;68.63
30724;BME280;17473;52.286;20.930;2023-07-28T03:51:06;99295.06;;;17.85;68.29
30724;BME280;17473;52.286;20.930;2023-07-28T03:53:33;99298.72;;;17.78;68.39
30724;BME280;17473;52.286;20.930;2023-07-28T03:56:03;99295.13;;;17.79;68.67
30724;BME280;17473;52.286;20.930;2023-07-28T03:58:31;99298.50;;;17.95;67.87
30724;BME280;17473;52.286;20.930;2023-07-28T04:00:58;99291.44;;;17.89;68.31
30724;BME280;17473;52.286;20.930;2023-07-28T04:03:25;99297.00;;;17.74;68.64
30724;BME280;17473;52.286;20.930;2023-07-28T04:05:52;99284.69;;;17.60;68.79
30724;BME280;17473;52.286;20.930;2023-07-28T04:08:19;99276.59;;;17.66;68.75
30724;BME280;17473;52.286;20.930;2023-07-28T04:10:46;99280.81;;;17.88;67.95
30724;BME280;17473;52.286;20.930;2023-07-28T04:13:13;99284.34;;;17.88;67.78
30724;BME280;17473;52.286;20.930;2023-07-28T04:15:41;99281.59;;;17.96;67.66
30724;BME280;17473;52.286;20.930;2023-07-28T04:18:08;99293.31;;;17.82;67.94
30724;BME280;17473;52.286;20.930;2023-07-28T04:20:35;99287.34;;;18.29;66.07
30724;BME280;17473;52.286;20.930;2023-07-28T04:23:02;99286.69;;;18.13;66.84
30724;BME280;17473;52.286;20.930;2023-07-28T04:25:29;99279.66;;;18.09;66.83
30724;BME280;17473;52.286;20.930;2023-07-28T04:27:56;99285.97;;;18.03;66.61
30724;BME280;17473;52.286;20.930;2023-07-28T04:30:23;99281.25;;;18.21;66.42
30724;BME280;17473;52.286;20.930;2023-07-28T04:32:50;99286.75;;;18.10;66.94
30724;BME280;17473;52.286;20.930;2023-07-28T04:35:18;99269.78;;;18.12;66.69
30724;BME280;17473;52.286;20.930;2023-07-28T04:37:45;99272.69;;;17.94;67.52
30724;BME280;17473;52.286;20.930;2023-07-28T04:40:12;99267.13;;;18.12;66.66
30724;BME280;17473;52.286;20.930;2023-07-28T04:42:43;99258.63;;;17.81;67.89
30724;BME280;17473;52.286;20.930;2023-07-28T04:45:10;99266.31;;;18.06;67.32
30724;BME280;17473;52.286;20.930;2023-07-28T04:47:37;99261.94;;;18.00;67.57
30724;BME280;17473;52.286;20.930;2023-07-28T04:50:04;99259.22;;;18.06;67.52
30724;BME280;17473;52.286;20.930;2023-07-28T04:52:32;99248.69;;;17.91;68.52
30724;BME280;17473;52.286;20.930;2023-07-28T04:54:59;99251.25;;;18.03;68.29
30724;BME280;17473;52.286;20.930;2023-07-28T04:57:26;99246.63;;;18.14;67.95
30724;BME280;17473;52.286;20.930;2023-07-28T04:59:53;99247.38;;;18.23;67.98
30724;BME280;17473;52.286;20.930;2023-07-28T05:02:20;99249.00;;;18.32;67.47
30724;BME280;17473;52.286;20.930;2023-07-28T05:04:47;99247.94;;;18.45;67.36
30724;BME280;17473;52.286;20.930;2023-07-28T05:07:14;99237.25;;;18.43;67.48
30724;BME280;17473;52.286;20.930;2023-07-28T05:09:41;99239.38;;;18.23;68.17
30724;BME280;17473;52.286;20.930;2023-07-28T05:12:08;99243.22;;;18.59;66.98
30724;BME280;17473;52.286;20.930;2023-07-28T05:14:35;99238.84;;;18.54;66.52
30724;BME280;17473;52.286;20.930;2023-07-28T05:17:03;99241.78;;;18.38;67.24
30724;BME280;17473;52.286;20.930;2023-07-28T05:19:31;99231.22;;;18.32;67.83
30724;BME280;17473;52.286;20.930;2023-07-28T05:21:59;99238.78;;;18.60;67.32
30724;BME280;17473;52.286;20.930;2023-07-28T05:24:26;99241.34;;;18.66;66.77
30724;BME280;17473;52.286;20.930;2023-07-28T05:26:53;99242.31;;;18.60;66.79
30724;BME280;17473;52.286;20.930;2023-07-28T05:29:20;99240.59;;;18.58;67.41
30724;BME280;17473;52.286;20.930;2023-07-28T05:31:47;99231.69;;;18.56;67.34
30724;BME280;17473;52.286;20.930;2023-07-28T05:34:14;99239.91;;;18.45;67.70
30724;BME280;17473;52.286;20.930;2023-07-28T05:36:42;99241.41;;;18.61;67.17
30724;BME280;17473;52.286;20.930;2023-07-28T05:39:09;99243.09;;;18.67;66.83
30724;BME280;17473;52.286;20.930;2023-07-28T05:41:37;99230.63;;;18.66;67.00
30724;BME280;17473;52.286;20.930;2023-07-28T05:44:04;99241.59;;;18.51;67.28
30724;BME280;17473;52.286;20.930;2023-07-28T05:46:31;99241.66;;;18.48;67.73
30724;BME280;17473;52.286;20.930;2023-07-28T05:48:59;99238.69;;;18.65;67.51
30724;BME280;17473;52.286;20.930;2023-07-28T05:51:26;99241.69;;;18.46;67.89
30724;BME280;17473;52.286;20.930;2023-07-28T05:53:54;99230.06;;;18.47;68.21
30724;BME280;17473;52.286;20.930;2023-07-28T05:56:21;99230.75;;;18.60;67.47
30724;BME280;17473;52.286;20.930;2023-07-28T05:58:49;99235.53;;;18.92;66.21
30724;BME280;17473;52.286;20.930;2023-07-28T06:01:16;99232.84;;;18.94;65.67
30724;BME280;17473;52.286;20.930;2023-07-28T06:03:44;99245.22;;;18.98;65.32
30724;BME280;17473;52.286;20.930;2023-07-28T06:06:12;99248.91;;;18.94;66.41
30724;BME280;17473;52.286;20.930;2023-07-28T06:08:39;99243.59;;;18.88;66.58
30724;BME280;17473;52.286;20.930;2023-07-28T06:11:06;99246.06;;;19.02;66.40
30724;BME280;17473;52.286;20.930;2023-07-28T06:13:34;99247.72;;;19.09;64.58
30724;BME280;17473;52.286;20.930;2023-07-28T06:16:01;99255.94;;;19.00;65.51
30724;BME280;17473;52.286;20.930;2023-07-28T06:18:28;99242.84;;;19.31;64.52
30724;BME280;17473;52.286;20.930;2023-07-28T06:20:55;99239.75;;;19.06;65.20
30724;BME280;17473;52.286;20.930;2023-07-28T06:23:22;99234.63;;;19.41;63.27
30724;BME280;17473;52.286;20.930;2023-07-28T06:25:50;99239.56;;;19.15;64.79
30724;BME280;17473;52.286;20.930;2023-07-28T06:28:18;99235.34;;;19.47;63.23
30724;BME280;17473;52.286;20.930;2023-07-28T06:30:45;99241.06;;;19.30;64.35
30724;BME280;17473;52.286;20.930;2023-07-28T06:33:12;99248.28;;;19.25;64.66
30724;BME280;17473;52.286;20.930;2023-07-28T06:35:39;99245.53;;;19.30;63.96
30724;BME280;17473;52.286;20.930;2023-07-28T06:38:06;99248.97;;;19.79;62.07
30724;BME280;17473;52.286;20.930;2023-07-28T06:40:34;99244.47;;;19.37;63.14
30724;BME280;17473;52.286;20.930;2023-07-28T06:43:01;99243.44;;;19.46;63.09
30724;BME280;17473;52.286;20.930;2023-07-28T06:45:28;99238.97;;;19.45;62.73
30724;BME280;17473;52.286;20.930;2023-07-28T06:47:56;99236.41;;;19.40;63.27
30724;BME280;17473;52.286;20.930;2023-07-28T06:50:23;99236.06;;;19.55;63.03
30724;BME280;17473;52.286;20.930;2023-07-28T06:52:50;99229.72;;;19.61;62.84
30724;BME280;17473;52.286;20.930;2023-07-28T06:55:18;99231.63;;;19.54;63.29
30724;BME280;17473;52.286;20.930;2023-07-28T06:57:48;99227.84;;;19.66;62.61
30724;BME280;17473;52.286;20.930;2023-07-28T07:00:16;99222.38;;;19.27;64.22
30724;BME280;17473;52.286;20.930;2023-07-28T07:02:45;99226.59;;;19.41;64.32
30724;BME280;17473;52.286;20.930;2023-07-28T07:05:12;99227.50;;;19.39;64.33
30724;BME280;17473;52.286;20.930;2023-07-28T07:07:40;99232.84;;;19.39;64.84
30724;BME280;17473;52.286;20.930;2023-07-28T07:10:08;99240.69;;;19.49;65.01
30724;BME280;17473;52.286;20.930;2023-07-28T07:12:36;99235.00;;;19.20;67.34
30724;BME280;17473;52.286;20.930;2023-07-28T07:15:04;99244.38;;;18.96;70.76
30724;BME280;17473;52.286;20.930;2023-07-28T07:17:33;99244.63;;;18.81;73.58
30724;BME280;17473;52.286;20.930;2023-07-28T07:20:00;99253.78;;;18.67;74.69
30724;BME280;17473;52.286;20.930;2023-07-28T07:22:27;99255.97;;;18.42;78.09
30724;BME280;17473;52.286;20.930;2023-07-28T07:24:56;99261.84;;;18.08;81.08
30724;BME280;17473;52.286;20.930;2023-07-28T07:27:26;99258.63;;;18.43;80.90
30724;BME280;17473;52.286;20.930;2023-07-28T07:29:53;99261.38;;;18.39;81.72
30724;BME280;17473;52.286;20.930;2023-07-28T07:32:20;99247.16;;;18.37;82.96
30724;BME280;17473;52.286;20.930;2023-07-28T07:34:47;99253.59;;;18.23;85.47
30724;BME280;17473;52.286;20.930;2023-07-28T07:37:14;99249.00;;;18.32;84.03
30724;BME280;17473;52.286;20.930;2023-07-28T07:39:42;99242.88;;;18.25;85.89
30724;BME280;17473;52.286;20.930;2023-07-28T07:42:10;99250.59;;;18.45;84.78
30724;BME280;17473;52.286;20.930;2023-07-28T07:44:38;99241.97;;;18.27;84.90
30724;BME280;17473;52.286;20.930;2023-07-28T07:47:13;99246.50;;;18.24;86.09
30724;BME280;17473;52.286;20.930;2023-07-28T07:49:42;99241.91;;;18.32;86.15
30724;BME280;17473;52.286;20.930;2023-07-28T07:52:10;99250.06;;;18.21;86.32
30724;BME280;17473;52.286;20.930;2023-07-28T07:54:38;99243.81;;;18.24;87.08
30724;BME280;17473;52.286;20.930;2023-07-28T07:57:05;99243.59;;;18.36;86.58
30724;BME280;17473;52.286;20.930;2023-07-28T07:59:33;99239.28;;;18.29;87.28
30724;BME280;17473;52.286;20.930;2023-07-28T08:02:02;99242.13;;;18.17;87.56
30724;BME280;17473;52.286;20.930;2023-07-28T08:04:31;99244.56;;;18.30;87.10
30724;BME280;17473;52.286;20.930;2023-07-28T08:06:58;99254.88;;;17.97;89.36
30724;BME280;17473;52.286;20.930;2023-07-28T08:09:26;99254.84;;;18.01;89.86
30724;BME280;17473;52.286;20.930;2023-07-28T08:11:54;99241.56;;;17.96;90.12
30724;BME280;17473;52.286;20.930;2023-07-28T08:14:21;99241.53;;;17.94;90.46
30724;BME280;17473;52.286;20.930;2023-07-28T08:16:48;99249.47;;;18.02;90.48
30724;BME280;17473;52.286;20.930;2023-07-28T08:19:15;99245.00;;;18.04;90.52
30724;BME280;17473;52.286;20.930;2023-07-28T08:21:43;99244.09;;;18.04;91.03
30724;BME280;17473;52.286;20.930;2023-07-28T08:24:10;99242.22;;;18.10;91.38
30724;BME280;17473;52.286;20.930;2023-07-28T08:26:38;99240.28;;;18.22;91.43
30724;BME280;17473;52.286;20.930;2023-07-28T08:29:05;99241.28;;;18.68;88.89
30724;BME280;17473;52.286;20.930;2023-07-28T08:31:32;99242.84;;;18.81;88.27
30724;BME280;17473;52.286;20.930;2023-07-28T08:34:00;99238.25;;;18.89;89.35
30724;BME280;17473;52.286;20.930;2023-07-28T08:36:27;99232.41;;;19.17;87.06
30724;BME280;17473;52.286;20.930;2023-07-28T08:38:54;99233.88;;;19.32;85.30
30724;BME280;17473;52.286;20.930;2023-07-28T08:41:21;99242.75;;;19.34;85.77
30724;BME280;17473;52.286;20.930;2023-07-28T08:43:49;99237.81;;;19.14;87.45
30724;BME280;17473;52.286;20.930;2023-07-28T08:46:18;99245.78;;;18.67;90.22
30724;BME280;17473;52.286;20.930;2023-07-28T08:48:45;99248.16;;;18.83;90.92
30724;BME280;17473;52.286;20.930;2023-07-28T08:51:13;99240.44;;;18.67;90.22
30724;BME280;17473;52.286;20.930;2023-07-28T08:53:40;99238.53;;;18.72;90.06
30724;BME280;17473;52.286;20.930;2023-07-28T08:56:08;99232.94;;;18.35;91.39
30724;BME280;17473;52.286;20.930;2023-07-28T08:58:36;99225.91;;;18.29;91.21
30724;BME280;17473;52.286;20.930;2023-07-28T09:01:03;99234.66;;;18.39;90.92
30724;BME280;17473;52.286;20.930;2023-07-28T09:03:32;99229.38;;;18.36;91.79
30724;BME280;17473;52.286;20.930;2023-07-28T09:06:02;99215.72;;;18.53;92.72
30724;BME280;17473;52.286;20.930;2023-07-28T09:08:32;99221.63;;;18.72;91.83
30724;BME280;17473;52.286;20.930;2023-07-28T09:11:03;99233.13;;;18.22;93.84
30724;BME280;17473;52.286;20.930;2023-07-28T09:13:40;99219.31;;;18.50;93.00
30724;BME280;17473;52.286;20.930;2023-07-28T09:16:20;99224.38;;;18.67;92.83
30724;BME280;17473;52.286;20.930;2023-07-28T09:18:48;99231.16;;;18.87;91.30
30724;BME280;17473;52.286;20.930;2023-07-28T09:21:21;99214.53;;;18.69;91.37
30724;BME280;17473;52.286;20.930;2023-07-28T09:23:48;99222.75;;;18.58;93.73
30724;BME280;17473;52.286;20.930;2023-07-28T09:26:16;99218.16;;;18.67;93.98
30724;BME280;17473;52.286;20.930;2023-07-28T09:28:43;99220.56;;;18.82;92.83
30724;BME280;17473;52.286;20.930;2023-07-28T09:31:11;99218.13;;;18.68;93.69
30724;BME280;17473;52.286;20.930;2023-07-28T09:33:38;99214.72;;;19.08;92.01
30724;BME280;17473;52.286;20.930;2023-07-28T09:36:12;99214.88;;;19.02;91.54
30724;BME280;17473;52.286;20.930;2023-07-28T09:38:40;99206.63;;;19.13;91.27
30724;BME280;17473;52.286;20.930;2023-07-28T09:41:10;99201.41;;;19.05;91.20
30724;BME280;17473;52.286;20.930;2023-07-28T09:43:40;99203.66;;;19.27;90.50
30724;BME280;17473;52.286;20.930;2023-07-28T09:46:09;99202.75;;;19.70;87.94
30724;BME280;17473;52.286;20.930;2023-07-28T09:48:38;99194.16;;;19.54;88.98
30724;BME280;17473;52.286;20.930;2023-07-28T09:51:12;99194.19;;;19.53;89.77
30724;BME280;17473;52.286;20.930;2023-07-28T09:53:48;99196.81;;;19.56;88.83
30724;BME280;17473;52.286;20.930;2023-07-28T09:56:16;99196.31;;;19.38;89.81
30724;BME280;17473;52.286;20.930;2023-07-28T09:58:52;99189.75;;;19.53;89.83
30724;BME280;17473;52.286;20.930;2023-07-28T10:01:20;99198.75;;;19.49;89.33
30724;BME280;17473;52.286;20.930;2023-07-28T10:03:49;99205.22;;;19.80;88.35
30724;BME280;17473;52.286;20.930;2023-07-28T10:06:18;99198.84;;;19.45;91.38
30724;BME280;17473;52.286;20.930;2023-07-28T10:08:46;99187.13;;;19.50;92.57
30724;BME280;17473;52.286;20.930;2023-07-28T10:11:16;99187.25;;;19.44;92.27
30724;BME280;17473;52.286;20.930;2023-07-28T10:13:44;99196.31;;;19.37;93.83
30724;BME280;17473;52.286;20.930;2023-07-28T10:16:16;99188.34;;;19.35;93.17
30724;BME280;17473;52.286;20.930;2023-07-28T10:18:54;99182.34;;;19.65;91.80
30724;BME280;17473;52.286;20.930;2023-07-28T10:21:21;99190.41;;;19.63;92.40
30724;BME280;17473;52.286;20.930;2023-07-28T10:23:55;99194.06;;;19.59;93.34
30724;BME280;17473;52.286;20.930;2023-07-28T10:26:39;99189.59;;;19.17;93.50
30724;BME280;17473;52.286;20.930;2023-07-28T10:29:13;99186.88;;;19.61;91.31
30724;BME280;17473;52.286;20.930;2023-07-28T10:31:55;99186.84;;;19.22;94.87
30724;BME280;17473;52.286;20.930;2023-07-28T10:34:25;99182.88;;;19.40;93.52
30724;BME280;17473;52.286;20.930;2023-07-28T10:36:57;99188.09;;;19.46;93.64
30724;BME280;17473;52.286;20.930;2023-07-28T10:39:26;99183.13;;;19.70;91.99
30724;BME280;17473;52.286;20.930;2023-07-28T10:42:09;99180.44;;;19.70;91.63
30724;BME280;17473;52.286;20.930;2023-07-28T10:44:36;99190.06;;;19.79;92.45
30724;BME280;17473;52.286;20.930;2023-07-28T10:47:10;99186.22;;;19.92;89.91
30724;BME280;17473;52.286;20.930;2023-07-28T10:49:38;99171.41;;;19.74;91.38
30724;BME280;17473;52.286;20.930;2023-07-28T10:52:05;99173.97;;;19.80;91.91
30724;BME280;17473;52.286;20.930;2023-07-28T10:54:34;99170.28;;;19.84;90.97
30724;BME280;17473;52.286;20.930;2023-07-28T10:57:05;99182.47;;;19.99;90.48
30724;BME280;17473;52.286;20.930;2023-07-28T10:59:33;99171.13;;;19.88;89.88
30724;BME280;17473;52.286;20.930;2023-07-28T11:02:00;99175.53;;;19.91;89.71
30724;BME280;17473;52.286;20.930;2023-07-28T11:04:27;99175.28;;;20.01;89.50
30724;BME280;17473;52.286;20.930;2023-07-28T11:06:54;99177.88;;;20.05;90.68
30724;BME280;17473;52.286;20.930;2023-07-28T11:09:23;99182.53;;;19.96;89.28
30724;BME280;17473;52.286;20.930;2023-07-28T11:11:50;99179.84;;;19.98;90.02
30724;BME280;17473;52.286;20.930;2023-07-28T11:14:18;99174.03;;;20.16;89.23
30724;BME280;17473;52.286;20.930;2023-07-28T11:16:46;99167.97;;;20.08;90.05
30724;BME280;17473;52.286;20.930;2023-07-28T11:19:17;99169.38;;;20.25;89.39
30724;BME280;17473;52.286;20.930;2023-07-28T11:21:52;99166.81;;;20.20;88.68
30724;BME280;17473;52.286;20.930;2023-07-28T11:24:21;99170.91;;;20.33;88.25
30724;BME280;17473;52.286;20.930;2023-07-28T11:26:49;99168.19;;;20.35;86.92
30724;BME280;17473;52.286;20.930;2023-07-28T11:29:18;99160.09;;;20.71;84.81
30724;BME280;17473;52.286;20.930;2023-07-28T11:31:46;99168.72;;;21.17;82.15
30724;BME280;17473;52.286;20.930;2023-07-28T11:34:17;99158.94;;;21.15;80.91
30724;BME280;17473;52.286;20.930;2023-07-28T11:36:45;99161.25;;;21.27;81.44
30724;BME280;17473;52.286;20.930;2023-07-28T11:39:12;99152.38;;;21.55;78.48
30724;BME280;17473;52.286;20.930;2023-07-28T11:41:41;99154.53;;;21.73;77.52
30724;BME280;17473;52.286;20.930;2023-07-28T11:44:11;99147.09;;;21.52;78.86
30724;BME280;17473;52.286;20.930;2023-07-28T11:46:43;99152.66;;;21.46;80.14
30724;BME280;17473;52.286;20.930;2023-07-28T11:49:20;99150.94;;;21.43;80.85
30724;BME280;17473;52.286;20.930;2023-07-28T11:51:54;99146.03;;;21.57;82.11
30724;BME280;17473;52.286;20.930;2023-07-28T11:54:22;99146.53;;;21.72;82.42
30724;BME280;17473;52.286;20.930;2023-07-28T11:56:54;99146.19;;;22.36;80.32
30724;BME280;17473;52.286;20.930;2023-07-28T11:59:22;99141.19;;;22.78;78.93
30724;BME280;17473;52.286;20.930;2023-07-28T12:02:00;99134.78;;;23.06;78.54
30724;BME280;17473;52.286;20.930;2023-07-28T12:04:35;99140.13;;;23.07;79.19
30724;BME280;17473;52.286;20.930;2023-07-28T12:07:13;99141.03;;;23.32;75.12
30724;BME280;17473;52.286;20.930;2023-07-28T12:12:29;99141.06;;;23.06;74.94
30724;BME280;17473;52.286;20.930;2023-07-28T12:14:58;99134.78;;;22.82;74.35
30724;BME280;17473;52.286;20.930;2023-07-28T12:17:34;99144.75;;;23.04;73.61
30724;BME280;17473;52.286;20.930;2023-07-28T12:20:08;99149.81;;;23.60;71.57
30724;BME280;17473;52.286;20.930;2023-07-28T12:22:42;99140.13;;;23.55;71.68
30724;BME280;17473;52.286;20.930;2023-07-28T12:25:10;99140.97;;;23.79;69.93
30724;BME280;17473;52.286;20.930;2023-07-28T12:27:38;99147.44;;;23.53;69.82
30724;BME280;17473;52.286;20.930;2023-07-28T12:30:06;99136.84;;;23.48;69.29
30724;BME280;17473;52.286;20.930;2023-07-28T12:32:42;99130.81;;;23.41;69.19
30724;BME280;17473;52.286;20.930;2023-07-28T12:35:29;99141.41;;;23.46;67.88
30724;BME280;17473;52.286;20.930;2023-07-28T12:38:05;99148.00;;;23.61;66.86
30724;BME280;17473;52.286;20.930;2023-07-28T12:40:35;99156.66;;;23.45;66.28
30724;BME280;17473;52.286;20.930;2023-07-28T12:43:05;99157.78;;;23.64;66.04
30724;BME280;17473;52.286;20.930;2023-07-28T12:45:33;99164.66;;;23.25;66.90
30724;BME280;17473;52.286;20.930;2023-07-28T12:48:03;99170.06;;;23.93;65.24
30724;BME280;17473;52.286;20.930;2023-07-28T12:50:31;99168.56;;;23.14;66.53
30724;BME280;17473;52.286;20.930;2023-07-28T12:53:07;99169.00;;;23.04;67.79
30724;BME280;17473;52.286;20.930;2023-07-28T12:55:43;99178.34;;;23.42;67.13
30724;BME280;17473;52.286;20.930;2023-07-28T12:58:13;99174.94;;;23.37;67.99
30724;BME280;17473;52.286;20.930;2023-07-28T13:00:44;99178.28;;;23.44;68.10